sensor_id;sensor_type;location;lat;lon;timestamp;P1;durP1;ratioP1;P2;durP2;ratioP2
1977;SDS011;989;53.016;8.346;2022-09-09T00:01:37;51.23;;;24.13;;
1977;SDS011;989;53.016;8.346;2022-09-09T00:06:59;47.77;;;24.20;;
1977;SDS011;989;53.016;8.346;2022-09-09T00:12:53;48.00;;;23.80;;
1977;SDS011;989;53.016;8.346;2022-09-09T00:15:43;45.37;;;21.80;;
1977;SDS011;989;53.016;8.346;2022-09-09T00:18:51;50.07;;;22.60;;
1977;SDS011;989;53.016;8.346;2022-09-09T00:21:21;43.17;;;21.00;;
1977;SDS011;989;53.016;8.346;2022-09-09T00:24:04;43.43;;;21.80;;
1977;SDS011;989;53.016;8.346;2022-09-09T00:27:00;53.37;;;24.23;;
1977;SDS011;989;53.016;8.346;2022-09-09T00:29:53;46.97;;;24.37;;
1977;SDS011;989;53.016;8.346;2022-09-09T00:32:24;50.00;;;22.33;;
1977;SDS011;989;53.016;8.346;2022-09-09T00:35:11;45.53;;;23.90;;
1977;SDS011;989;53.016;8.346;2022-09-09T00:37:52;46.10;;;24.53;;
1977;SDS011;989;53.016;8.346;2022-09-09T00:41:05;64.03;;;25.63;;
1977;SDS011;989;53.016;8.346;2022-09-09T00:43:35;45.30;;;24.60;;
1977;SDS011;989;53.016;8.346;2022-09-09T00:51:58;53.33;;;23.07;;
1977;SDS011;989;53.016;8.346;2022-09-09T00:58:07;44.67;;;22.47;;
1977;SDS011;989;53.016;8.346;2022-09-09T01:00:48;46.10;;;23.20;;
1977;SDS011;989;53.016;8.346;2022-09-09T01:09:04;44.53;;;23.23;;
1977;SDS011;989;53.016;8.346;2022-09-09T01:11:55;47.20;;;22.00;;
1977;SDS011;989;53.016;8.346;2022-09-09T01:14:43;49.87;;;22.13;;
1977;SDS011;989;53.016;8.346;2022-09-09T01:17:17;40.13;;;21.57;;
1977;SDS011;989;53.016;8.346;2022-09-09T01:29:00;43.53;;;19.90;;
1977;SDS011;989;53.016;8.346;2022-09-09T01:31:31;41.10;;;20.37;;
1977;SDS011;989;53.016;8.346;2022-09-09T01:34:13;36.03;;;18.90;;
1977;SDS011;989;53.016;8.346;2022-09-09T01:36:48;39.03;;;19.33;;
1977;SDS011;989;53.016;8.346;2022-09-09T01:39:23;44.70;;;19.50;;
1977;SDS011;989;53.016;8.346;2022-09-09T01:41:49;32.87;;;18.10;;
1977;SDS011;989;53.016;8.346;2022-09-09T01:44:14;40.73;;;18.00;;
1977;SDS011;989;53.016;8.346;2022-09-09T01:46:43;38.27;;;18.27;;
1977;SDS011;989;53.016;8.346;2022-09-09T01:49:09;34.73;;;18.37;;
1977;SDS011;989;53.016;8.346;2022-09-09T01:51:35;35.23;;;18.57;;
1977;SDS011;989;53.016;8.346;2022-09-09T01:54:02;37.13;;;17.97;;
1977;SDS011;989;53.016;8.346;2022-09-09T01:56:52;38.47;;;17.90;;
1977;SDS011;989;53.016;8.346;2022-09-09T01:59:47;29.40;;;17.40;;
1977;SDS011;989;53.016;8.346;2022-09-09T02:02:26;38.77;;;17.30;;
1977;SDS011;989;53.016;8.346;2022-09-09T02:07:41;29.77;;;16.43;;
1977;SDS011;989;53.016;8.346;2022-09-09T02:10:21;31.67;;;19.07;;
1977;SDS011;989;53.016;8.346;2022-09-09T02:13:00;50.57;;;18.60;;
1977;SDS011;989;53.016;8.346;2022-09-09T02:16:00;34.13;;;18.67;;
1977;SDS011;989;53.016;8.346;2022-09-09T02:18:51;39.03;;;20.30;;
1977;SDS011;989;53.016;8.346;2022-09-09T02:21:27;35.90;;;17.57;;
1977;SDS011;989;53.016;8.346;2022-09-09T02:23:56;33.93;;;18.63;;
1977;SDS011;989;53.016;8.346;2022-09-09T02:26:25;38.10;;;18.37;;
1977;SDS011;989;53.016;8.346;2022-09-09T02:28:53;34.80;;;19.10;;
1977;SDS011;989;53.016;8.346;2022-09-09T02:31:23;30.40;;;19.40;;
1977;SDS011;989;53.016;8.346;2022-09-09T02:33:52;31.97;;;19.53;;
1977;SDS011;989;53.016;8.346;2022-09-09T02:36:25;36.30;;;17.67;;
1977;SDS011;989;53.016;8.346;2022-09-09T02:38:55;29.50;;;19.00;;
1977;SDS011;989;53.016;8.346;2022-09-09T02:41:32;33.13;;;18.67;;
1977;SDS011;989;53.016;8.346;2022-09-09T02:44:00;32.20;;;18.50;;
1977;SDS011;989;53.016;8.346;2022-09-09T02:49:42;34.87;;;18.20;;
1977;SDS011;989;53.016;8.346;2022-09-09T02:52:32;41.60;;;21.37;;
1977;SDS011;989;53.016;8.346;2022-09-09T02:55:04;32.63;;;18.83;;
1977;SDS011;989;53.016;8.346;2022-09-09T02:57:39;33.63;;;19.07;;
1977;SDS011;989;53.016;8.346;2022-09-09T03:00:06;38.13;;;18.17;;
1977;SDS011;989;53.016;8.346;2022-09-09T03:02:33;24.97;;;18.17;;
1977;SDS011;989;53.016;8.346;2022-09-09T03:04:59;36.13;;;18.90;;
1977;SDS011;989;53.016;8.346;2022-09-09T03:07:24;41.03;;;18.93;;
1977;SDS011;989;53.016;8.346;2022-09-09T03:09:50;38.00;;;19.43;;
1977;SDS011;989;53.016;8.346;2022-09-09T03:12:16;38.10;;;18.10;;
1977;SDS011;989;53.016;8.346;2022-09-09T03:14:41;28.53;;;17.20;;
1977;SDS011;989;53.016;8.346;2022-09-09T03:17:09;31.33;;;19.00;;
1977;SDS011;989;53.016;8.346;2022-09-09T03:19:34;29.00;;;17.37;;
1977;SDS011;989;53.016;8.346;2022-09-09T03:22:01;28.07;;;18.00;;
1977;SDS011;989;53.016;8.346;2022-09-09T03:24:26;33.03;;;18.60;;
1977;SDS011;989;53.016;8.346;2022-09-09T03:26:52;31.97;;;18.40;;
1977;SDS011;989;53.016;8.346;2022-09-09T03:29:18;30.33;;;16.90;;
1977;SDS011;989;53.016;8.346;2022-09-09T03:31:44;22.53;;;16.20;;
1977;SDS011;989;53.016;8.346;2022-09-09T03:34:10;38.00;;;17.23;;
1977;SDS011;989;53.016;8.346;2022-09-09T03:36:36;38.40;;;16.90;;
1977;SDS011;989;53.016;8.346;2022-09-09T03:39:04;31.53;;;16.30;;
1977;SDS011;989;53.016;8.346;2022-09-09T03:41:30;26.70;;;16.07;;
1977;SDS011;989;53.016;8.346;2022-09-09T03:43:56;24.40;;;15.97;;
1977;SDS011;989;53.016;8.346;2022-09-09T03:46:22;33.87;;;15.57;;
1977;SDS011;989;53.016;8.346;2022-09-09T03:48:49;22.30;;;15.00;;
1977;SDS011;989;53.016;8.346;2022-09-09T03:51:17;24.37;;;13.87;;
1977;SDS011;989;53.016;8.346;2022-09-09T03:53:43;30.47;;;15.33;;
1977;SDS011;989;53.016;8.346;2022-09-09T03:56:09;27.40;;;15.17;;
1977;SDS011;989;53.016;8.346;2022-09-09T03:58:36;19.53;;;14.67;;
1977;SDS011;989;53.016;8.346;2022-09-09T04:01:03;34.97;;;14.90;;
1977;SDS011;989;53.016;8.346;2022-09-09T04:03:40;22.67;;;14.40;;
1977;SDS011;989;53.016;8.346;2022-09-09T04:06:06;24.10;;;14.67;;
1977;SDS011;989;53.016;8.346;2022-09-09T04:08:34;32.07;;;13.70;;
1977;SDS011;989;53.016;8.346;2022-09-09T04:11:01;24.80;;;14.30;;
1977;SDS011;989;53.016;8.346;2022-09-09T04:13:29;19.57;;;12.27;;
1977;SDS011;989;53.016;8.346;2022-09-09T04:15:57;23.77;;;14.17;;
1977;SDS011;989;53.016;8.346;2022-09-09T04:18:24;20.13;;;13.00;;
1977;SDS011;989;53.016;8.346;2022-09-09T04:20:51;20.03;;;12.50;;
1977;SDS011;989;53.016;8.346;2022-09-09T04:23:18;18.20;;;13.23;;
1977;SDS011;989;53.016;8.346;2022-09-09T04:25:46;17.17;;;13.03;;
1977;SDS011;989;53.016;8.346;2022-09-09T04:28:14;18.77;;;13.07;;
1977;SDS011;989;53.016;8.346;2022-09-09T04:30:42;24.83;;;14.43;;
1977;SDS011;989;53.016;8.346;2022-09-09T04:33:08;24.30;;;16.40;;
1977;SDS011;989;53.016;8.346;2022-09-09T04:35:35;19.17;;;12.80;;
1977;SDS011;989;53.016;8.346;2022-09-09T04:38:01;21.23;;;13.17;;
1977;SDS011;989;53.016;8.346;2022-09-09T04:40:28;18.83;;;12.50;;
1977;SDS011;989;53.016;8.346;2022-09-09T04:42:57;24.60;;;14.27;;
1977;SDS011;989;53.016;8.346;2022-09-09T04:45:24;22.50;;;13.37;;
1977;SDS011;989;53.016;8.346;2022-09-09T04:47:51;25.20;;;14.60;;
1977;SDS011;989;53.016;8.346;2022-09-09T04:50:17;23.63;;;14.70;;
1977;SDS011;989;53.016;8.346;2022-09-09T04:52:43;22.40;;;14.10;;
1977;SDS011;989;53.016;8.346;2022-09-09T04:55:09;28.27;;;15.60;;
1977;SDS011;989;53.016;8.346;2022-09-09T04:57:35;28.73;;;15.13;;
1977;SDS011;989;53.016;8.346;2022-09-09T05:00:01;41.17;;;15.23;;
1977;SDS011;989;53.016;8.346;2022-09-09T05:02:28;32.60;;;15.30;;
1977;SDS011;989;53.016;8.346;2022-09-09T05:04:55;29.40;;;15.80;;
1977;SDS011;989;53.016;8.346;2022-09-09T05:07:21;24.10;;;14.33;;
1977;SDS011;989;53.016;8.346;2022-09-09T05:09:46;23.70;;;14.60;;
1977;SDS011;989;53.016;8.346;2022-09-09T05:12:14;27.83;;;14.60;;
1977;SDS011;989;53.016;8.346;2022-09-09T05:14:42;33.33;;;15.10;;
1977;SDS011;989;53.016;8.346;2022-09-09T05:17:08;24.33;;;13.20;;
1977;SDS011;989;53.016;8.346;2022-09-09T05:19:34;23.20;;;13.83;;
1977;SDS011;989;53.016;8.346;2022-09-09T05:22:00;35.33;;;15.07;;
1977;SDS011;989;53.016;8.346;2022-09-09T05:24:26;26.17;;;15.13;;
1977;SDS011;989;53.016;8.346;2022-09-09T05:26:52;22.17;;;13.10;;
1977;SDS011;989;53.016;8.346;2022-09-09T05:29:17;24.70;;;13.60;;
1977;SDS011;989;53.016;8.346;2022-09-09T05:31:46;23.43;;;14.20;;
1977;SDS011;989;53.016;8.346;2022-09-09T05:34:12;22.47;;;14.10;;
1977;SDS011;989;53.016;8.346;2022-09-09T05:36:38;29.97;;;13.37;;
1977;SDS011;989;53.016;8.346;2022-09-09T05:39:04;21.87;;;12.70;;
1977;SDS011;989;53.016;8.346;2022-09-09T05:41:30;22.10;;;13.00;;
1977;SDS011;989;53.016;8.346;2022-09-09T05:43:56;22.13;;;12.43;;
1977;SDS011;989;53.016;8.346;2022-09-09T05:46:24;21.50;;;13.10;;
1977;SDS011;989;53.016;8.346;2022-09-09T05:48:50;23.00;;;12.00;;
1977;SDS011;989;53.016;8.346;2022-09-09T05:51:18;24.47;;;12.87;;
1977;SDS011;989;53.016;8.346;2022-09-09T05:53:47;21.33;;;11.87;;
1977;SDS011;989;53.016;8.346;2022-09-09T05:56:16;23.43;;;12.53;;
1977;SDS011;989;53.016;8.346;2022-09-09T05:58:50;27.57;;;12.47;;
1977;SDS011;989;53.016;8.346;2022-09-09T06:01:19;17.40;;;12.20;;
1977;SDS011;989;53.016;8.346;2022-09-09T06:03:47;28.93;;;13.63;;
1977;SDS011;989;53.016;8.346;2022-09-09T06:06:15;21.80;;;12.87;;
1977;SDS011;989;53.016;8.346;2022-09-09T06:08:47;21.97;;;12.40;;
1977;SDS011;989;53.016;8.346;2022-09-09T06:11:18;27.83;;;14.70;;
1977;SDS011;989;53.016;8.346;2022-09-09T06:13:49;22.30;;;13.70;;
1977;SDS011;989;53.016;8.346;2022-09-09T06:16:18;23.17;;;14.80;;
1977;SDS011;989;53.016;8.346;2022-09-09T06:18:48;21.17;;;12.67;;
1977;SDS011;989;53.016;8.346;2022-09-09T06:21:19;20.23;;;13.57;;
1977;SDS011;989;53.016;8.346;2022-09-09T06:23:49;23.17;;;13.43;;
1977;SDS011;989;53.016;8.346;2022-09-09T06:26:20;29.33;;;13.30;;
1977;SDS011;989;53.016;8.346;2022-09-09T06:28:58;20.80;;;12.63;;
1977;SDS011;989;53.016;8.346;2022-09-09T06:31:25;22.00;;;11.93;;
1977;SDS011;989;53.016;8.346;2022-09-09T06:33:55;20.73;;;12.23;;
1977;SDS011;989;53.016;8.346;2022-09-09T06:36:26;38.37;;;11.57;;
1977;SDS011;989;53.016;8.346;2022-09-09T06:38:56;15.10;;;11.00;;
1977;SDS011;989;53.016;8.346;2022-09-09T06:41:23;20.93;;;10.60;;
1977;SDS011;989;53.016;8.346;2022-09-09T06:43:52;16.53;;;11.10;;
1977;SDS011;989;53.016;8.346;2022-09-09T06:46:22;14.97;;;9.90;;
1977;SDS011;989;53.016;8.346;2022-09-09T06:48:53;21.90;;;10.37;;
1977;SDS011;989;53.016;8.346;2022-09-09T06:51:21;16.63;;;9.40;;
1977;SDS011;989;53.016;8.346;2022-09-09T06:53:52;16.90;;;10.37;;
1977;SDS011;989;53.016;8.346;2022-09-09T06:56:21;13.37;;;8.90;;
1977;SDS011;989;53.016;8.346;2022-09-09T06:59:08;17.87;;;10.60;;
1977;SDS011;989;53.016;8.346;2022-09-09T07:01:36;18.73;;;9.87;;
1977;SDS011;989;53.016;8.346;2022-09-09T07:04:08;19.13;;;9.30;;
1977;SDS011;989;53.016;8.346;2022-09-09T07:06:43;12.03;;;9.07;;
1977;SDS011;989;53.016;8.346;2022-09-09T07:09:11;21.40;;;10.63;;
1977;SDS011;989;53.016;8.346;2022-09-09T07:11:41;16.03;;;9.63;;
1977;SDS011;989;53.016;8.346;2022-09-09T07:14:10;16.73;;;9.77;;
1977;SDS011;989;53.016;8.346;2022-09-09T07:16:40;13.93;;;9.23;;
1977;SDS011;989;53.016;8.346;2022-09-09T07:19:06;14.43;;;9.90;;
1977;SDS011;989;53.016;8.346;2022-09-09T07:21:32;15.20;;;9.10;;
1977;SDS011;989;53.016;8.346;2022-09-09T07:23:58;12.50;;;8.17;;
1977;SDS011;989;53.016;8.346;2022-09-09T07:26:26;14.33;;;8.43;;
1977;SDS011;989;53.016;8.346;2022-09-09T07:28:54;13.90;;;8.73;;
1977;SDS011;989;53.016;8.346;2022-09-09T07:31:23;16.43;;;8.63;;
1977;SDS011;989;53.016;8.346;2022-09-09T07:33:51;29.67;;;7.60;;
1977;SDS011;989;53.016;8.346;2022-09-09T07:36:22;11.37;;;7.70;;
1977;SDS011;989;53.016;8.346;2022-09-09T07:38:57;15.23;;;7.20;;
1977;SDS011;989;53.016;8.346;2022-09-09T07:41:27;14.77;;;6.90;;
1977;SDS011;989;53.016;8.346;2022-09-09T07:44:06;19.67;;;8.37;;
1977;SDS011;989;53.016;8.346;2022-09-09T07:46:38;11.37;;;6.93;;
1977;SDS011;989;53.016;8.346;2022-09-09T07:49:05;9.50;;;6.80;;
1977;SDS011;989;53.016;8.346;2022-09-09T07:51:32;11.60;;;6.30;;
1977;SDS011;989;53.016;8.346;2022-09-09T07:54:01;9.03;;;6.70;;
1977;SDS011;989;53.016;8.346;2022-09-09T07:56:34;9.50;;;5.90;;
1977;SDS011;989;53.016;8.346;2022-09-09T07:59:02;13.37;;;6.67;;
1977;SDS011;989;53.016;8.346;2022-09-09T08:01:32;9.87;;;6.20;;
1977;SDS011;989;53.016;8.346;2022-09-09T08:04:08;23.60;;;6.17;;
1977;SDS011;989;53.016;8.346;2022-09-09T08:06:40;10.13;;;6.97;;
1977;SDS011;989;53.016;8.346;2022-09-09T08:09:09;12.37;;;5.23;;
1977;SDS011;989;53.016;8.346;2022-09-09T08:11:35;12.17;;;4.80;;
1977;SDS011;989;53.016;8.346;2022-09-09T08:14:03;12.00;;;5.90;;
1977;SDS011;989;53.016;8.346;2022-09-09T08:16:30;10.60;;;5.00;;
1977;SDS011;989;53.016;8.346;2022-09-09T08:18:58;7.77;;;5.17;;
1977;SDS011;989;53.016;8.346;2022-09-09T08:21:26;9.07;;;5.33;;
1977;SDS011;989;53.016;8.346;2022-09-09T08:23:54;8.33;;;4.87;;
1977;SDS011;989;53.016;8.346;2022-09-09T08:26:23;10.67;;;4.67;;
1977;SDS011;989;53.016;8.346;2022-09-09T08:28:59;5.70;;;4.20;;
1977;SDS011;989;53.016;8.346;2022-09-09T08:33:58;7.50;;;4.17;;
1977;SDS011;989;53.016;8.346;2022-09-09T08:36:25;8.00;;;4.97;;
1977;SDS011;989;53.016;8.346;2022-09-09T08:38:56;12.17;;;4.90;;
1977;SDS011;989;53.016;8.346;2022-09-09T08:44:23;11.17;;;4.40;;
1977;SDS011;989;53.016;8.346;2022-09-09T08:47:18;7.87;;;3.07;;
1977;SDS011;989;53.016;8.346;2022-09-09T08:55:51;7.43;;;3.57;;
1977;SDS011;989;53.016;8.346;2022-09-09T08:58:25;5.10;;;3.30;;
1977;SDS011;989;53.016;8.346;2022-09-09T09:04:33;5.80;;;3.50;;
1977;SDS011;989;53.016;8.346;2022-09-09T09:07:14;10.23;;;3.60;;
1977;SDS011;989;53.016;8.346;2022-09-09T09:12:38;7.07;;;3.47;;
1977;SDS011;989;53.016;8.346;2022-09-09T09:15:14;9.63;;;3.70;;
1977;SDS011;989;53.016;8.346;2022-09-09T09:17:51;8.70;;;3.40;;
1977;SDS011;989;53.016;8.346;2022-09-09T09:20:18;9.30;;;3.57;;
1977;SDS011;989;53.016;8.346;2022-09-09T09:22:55;8.07;;;4.10;;
1977;SDS011;989;53.016;8.346;2022-09-09T09:25:27;15.00;;;4.20;;
1977;SDS011;989;53.016;8.346;2022-09-09T09:30:59;9.73;;;3.90;;
1977;SDS011;989;53.016;8.346;2022-09-09T09:33:41;6.70;;;3.87;;
1977;SDS011;989;53.016;8.346;2022-09-09T09:36:15;12.23;;;3.30;;
1977;SDS011;989;53.016;8.346;2022-09-09T09:38:51;8.93;;;4.43;;
1977;SDS011;989;53.016;8.346;2022-09-09T09:44:02;8.93;;;4.20;;
1977;SDS011;989;53.016;8.346;2022-09-09T09:46:29;12.83;;;4.20;;
1977;SDS011;989;53.016;8.346;2022-09-09T09:49:05;11.50;;;4.00;;
1977;SDS011;989;53.016;8.346;2022-09-09T09:51:35;12.60;;;4.13;;
1977;SDS011;989;53.016;8.346;2022-09-09T09:56:53;8.47;;;4.40;;
1977;SDS011;989;53.016;8.346;2022-09-09T09:59:24;8.60;;;4.23;;
1977;SDS011;989;53.016;8.346;2022-09-09T10:04:44;9.00;;;4.50;;
1977;SDS011;989;53.016;8.346;2022-09-09T10:07:20;9.20;;;3.70;;
1977;SDS011;989;53.016;8.346;2022-09-09T10:09:49;6.27;;;3.87;;
1977;SDS011;989;53.016;8.346;2022-09-09T10:18:28;6.40;;;4.10;;
1977;SDS011;989;53.016;8.346;2022-09-09T10:21:15;5.23;;;3.33;;
1977;SDS011;989;53.016;8.346;2022-09-09T10:38:41;4.83;;;2.50;;
1977;SDS011;989;53.016;8.346;2022-09-09T10:46:39;8.30;;;3.60;;
1977;SDS011;989;53.016;8.346;2022-09-09T10:49:31;6.63;;;2.80;;
1977;SDS011;989;53.016;8.346;2022-09-09T10:55:31;7.60;;;3.03;;
1977;SDS011;989;53.016;8.346;2022-09-09T10:58:04;11.63;;;3.23;;
1977;SDS011;989;53.016;8.346;2022-09-09T11:00:39;12.30;;;3.10;;
1977;SDS011;989;53.016;8.346;2022-09-09T11:03:17;7.57;;;2.80;;
1977;SDS011;989;53.016;8.346;2022-09-09T11:05:55;11.10;;;3.03;;
1977;SDS011;989;53.016;8.346;2022-09-09T11:08:45;9.30;;;3.20;;
1977;SDS011;989;53.016;8.346;2022-09-09T11:11:22;12.63;;;4.80;;
1977;SDS011;989;53.016;8.346;2022-09-09T11:14:03;9.20;;;2.60;;
1977;SDS011;989;53.016;8.346;2022-09-09T11:16:50;6.87;;;2.80;;
1977;SDS011;989;53.016;8.346;2022-09-09T11:22:04;13.93;;;3.47;;
1977;SDS011;989;53.016;8.346;2022-09-09T11:30:54;14.10;;;3.37;;
1977;SDS011;989;53.016;8.346;2022-09-09T11:34:36;7.30;;;3.23;;
1977;SDS011;989;53.016;8.346;2022-09-09T11:37:15;10.93;;;3.03;;
1977;SDS011;989;53.016;8.346;2022-09-09T11:42:35;6.57;;;3.50;;
1977;SDS011;989;53.016;8.346;2022-09-09T11:45:10;8.27;;;3.83;;
1977;SDS011;989;53.016;8.346;2022-09-09T11:47:52;16.10;;;3.37;;
1977;SDS011;989;53.016;8.346;2022-09-09T11:52:47;8.00;;;3.60;;
1977;SDS011;989;53.016;8.346;2022-09-09T11:55:30;4.50;;;3.40;;
1977;SDS011;989;53.016;8.346;2022-09-09T12:00:34;10.20;;;4.33;;
1977;SDS011;989;53.016;8.346;2022-09-09T12:03:04;6.80;;;3.00;;
1977;SDS011;989;53.016;8.346;2022-09-09T12:05:38;10.47;;;2.90;;
1977;SDS011;989;53.016;8.346;2022-09-09T12:08:09;6.77;;;2.20;;
1977;SDS011;989;53.016;8.346;2022-09-09T12:10:52;5.60;;;2.53;;
1977;SDS011;989;53.016;8.346;2022-09-09T12:13:21;6.97;;;2.03;;
1977;SDS011;989;53.016;8.346;2022-09-09T12:15:56;5.03;;;2.20;;
1977;SDS011;989;53.016;8.346;2022-09-09T12:18:36;4.60;;;2.00;;
1977;SDS011;989;53.016;8.346;2022-09-09T12:23:59;8.13;;;3.27;;
1977;SDS011;989;53.016;8.346;2022-09-09T12:26:35;14.73;;;2.90;;
1977;SDS011;989;53.016;8.346;2022-09-09T12:29:21;27.40;;;3.67;;
1977;SDS011;989;53.016;8.346;2022-09-09T12:32:17;14.50;;;4.00;;
1977;SDS011;989;53.016;8.346;2022-09-09T12:34:55;8.00;;;4.40;;
1977;SDS011;989;53.016;8.346;2022-09-09T12:42:57;9.47;;;5.30;;
1977;SDS011;989;53.016;8.346;2022-09-09T12:45:28;15.70;;;5.73;;
1977;SDS011;989;53.016;8.346;2022-09-09T12:48:00;7.00;;;5.37;;
1977;SDS011;989;53.016;8.346;2022-09-09T12:50:33;13.10;;;5.97;;
1977;SDS011;989;53.016;8.346;2022-09-09T12:55:56;13.63;;;6.97;;
1977;SDS011;989;53.016;8.346;2022-09-09T12:58:24;14.80;;;6.77;;
1977;SDS011;989;53.016;8.346;2022-09-09T13:00:54;11.87;;;5.80;;
1977;SDS011;989;53.016;8.346;2022-09-09T13:03:21;13.17;;;7.40;;
1977;SDS011;989;53.016;8.346;2022-09-09T13:05:49;12.47;;;5.10;;
1977;SDS011;989;53.016;8.346;2022-09-09T13:08:15;12.30;;;6.13;;
1977;SDS011;989;53.016;8.346;2022-09-09T13:13:38;9.20;;;4.73;;
1977;SDS011;989;53.016;8.346;2022-09-09T13:16:07;6.13;;;4.60;;
1977;SDS011;989;53.016;8.346;2022-09-09T13:19:06;10.80;;;3.93;;
1977;SDS011;989;53.016;8.346;2022-09-09T13:21:39;10.03;;;3.60;;
1977;SDS011;989;53.016;8.346;2022-09-09T13:24:06;9.97;;;3.70;;
1977;SDS011;989;53.016;8.346;2022-09-09T13:26:56;6.37;;;3.33;;
1977;SDS011;989;53.016;8.346;2022-09-09T13:29:53;6.40;;;2.80;;
1977;SDS011;989;53.016;8.346;2022-09-09T13:32:20;3.67;;;2.73;;
1977;SDS011;989;53.016;8.346;2022-09-09T13:34:54;5.13;;;2.90;;
1977;SDS011;989;53.016;8.346;2022-09-09T13:40:06;11.37;;;4.20;;
1977;SDS011;989;53.016;8.346;2022-09-09T13:42:44;7.77;;;4.00;;
1977;SDS011;989;53.016;8.346;2022-09-09T13:45:20;10.40;;;4.10;;
1977;SDS011;989;53.016;8.346;2022-09-09T13:47:51;14.77;;;5.30;;
1977;SDS011;989;53.016;8.346;2022-09-09T13:50:22;8.80;;;5.53;;
1977;SDS011;989;53.016;8.346;2022-09-09T13:52:53;7.80;;;4.83;;
1977;SDS011;989;53.016;8.346;2022-09-09T13:55:21;11.97;;;5.40;;
1977;SDS011;989;53.016;8.346;2022-09-09T13:57:50;15.60;;;6.67;;
1977;SDS011;989;53.016;8.346;2022-09-09T14:00:17;12.30;;;5.90;;
1977;SDS011;989;53.016;8.346;2022-09-09T14:02:43;14.40;;;5.83;;
1977;SDS011;989;53.016;8.346;2022-09-09T14:05:09;14.60;;;5.87;;
1977;SDS011;989;53.016;8.346;2022-09-09T14:07:36;16.13;;;5.80;;
1977;SDS011;989;53.016;8.346;2022-09-09T14:10:04;10.20;;;5.83;;
1977;SDS011;989;53.016;8.346;2022-09-09T14:12:31;12.70;;;5.40;;
1977;SDS011;989;53.016;8.346;2022-09-09T14:14:56;22.00;;;5.40;;
1977;SDS011;989;53.016;8.346;2022-09-09T14:17:22;7.77;;;6.27;;
1977;SDS011;989;53.016;8.346;2022-09-09T14:19:48;8.43;;;5.70;;
1977;SDS011;989;53.016;8.346;2022-09-09T14:22:13;17.23;;;6.17;;
1977;SDS011;989;53.016;8.346;2022-09-09T14:24:39;8.10;;;5.60;;
1977;SDS011;989;53.016;8.346;2022-09-09T14:27:06;10.47;;;5.37;;
1977;SDS011;989;53.016;8.346;2022-09-09T14:29:31;20.97;;;5.50;;
1977;SDS011;989;53.016;8.346;2022-09-09T14:31:58;10.20;;;5.33;;
1977;SDS011;989;53.016;8.346;2022-09-09T14:34:25;12.43;;;4.93;;
1977;SDS011;989;53.016;8.346;2022-09-09T14:36:51;12.23;;;4.90;;
1977;SDS011;989;53.016;8.346;2022-09-09T14:39:17;9.90;;;5.17;;
1977;SDS011;989;53.016;8.346;2022-09-09T14:41:43;12.20;;;4.93;;
1977;SDS011;989;53.016;8.346;2022-09-09T14:44:10;10.40;;;4.27;;
1977;SDS011;989;53.016;8.346;2022-09-09T14:46:36;9.73;;;4.70;;
1977;SDS011;989;53.016;8.346;2022-09-09T14:49:01;15.17;;;4.60;;
1977;SDS011;989;53.016;8.346;2022-09-09T14:51:27;8.63;;;4.80;;
1977;SDS011;989;53.016;8.346;2022-09-09T14:53:54;9.50;;;3.20;;
1977;SDS011;989;53.016;8.346;2022-09-09T14:56:23;6.40;;;3.57;;
1977;SDS011;989;53.016;8.346;2022-09-09T14:58:55;10.00;;;4.90;;
1977;SDS011;989;53.016;8.346;2022-09-09T15:01:22;4.03;;;2.33;;
1977;SDS011;989;53.016;8.346;2022-09-09T15:03:51;2.90;;;2.13;;
1977;SDS011;989;53.016;8.346;2022-09-09T15:06:19;5.93;;;2.40;;
1977;SDS011;989;53.016;8.346;2022-09-09T15:08:49;10.47;;;2.80;;
1977;SDS011;989;53.016;8.346;2022-09-09T15:11:17;5.50;;;3.70;;
1977;SDS011;989;53.016;8.346;2022-09-09T15:13:43;6.27;;;2.97;;
1977;SDS011;989;53.016;8.346;2022-09-09T15:18:38;9.17;;;3.00;;
1977;SDS011;989;53.016;8.346;2022-09-09T15:21:12;9.37;;;2.80;;
1977;SDS011;989;53.016;8.346;2022-09-09T15:23:44;8.57;;;2.67;;
1977;SDS011;989;53.016;8.346;2022-09-09T15:26:11;4.77;;;2.40;;
1977;SDS011;989;53.016;8.346;2022-09-09T15:28:39;8.00;;;3.80;;
1977;SDS011;989;53.016;8.346;2022-09-09T15:31:06;8.43;;;4.67;;
1977;SDS011;989;53.016;8.346;2022-09-09T15:33:51;9.50;;;4.50;;
1977;SDS011;989;53.016;8.346;2022-09-09T15:36:39;11.30;;;4.40;;
1977;SDS011;989;53.016;8.346;2022-09-09T15:39:08;9.67;;;4.70;;
1977;SDS011;989;53.016;8.346;2022-09-09T15:41:40;8.67;;;4.23;;
1977;SDS011;989;53.016;8.346;2022-09-09T15:44:08;7.53;;;4.40;;
1977;SDS011;989;53.016;8.346;2022-09-09T15:46:58;7.80;;;3.93;;
1977;SDS011;989;53.016;8.346;2022-09-09T15:49:24;6.07;;;4.20;;
1977;SDS011;989;53.016;8.346;2022-09-09T15:52:09;4.70;;;4.13;;
1977;SDS011;989;53.016;8.346;2022-09-09T15:54:36;10.60;;;4.23;;
1977;SDS011;989;53.016;8.346;2022-09-09T15:57:04;8.03;;;4.10;;
1977;SDS011;989;53.016;8.346;2022-09-09T15:59:32;11.53;;;4.63;;
1977;SDS011;989;53.016;8.346;2022-09-09T16:01:59;13.73;;;5.63;;
1977;SDS011;989;53.016;8.346;2022-09-09T16:04:25;13.30;;;3.17;;
1977;SDS011;989;53.016;8.346;2022-09-09T16:06:58;4.87;;;2.40;;
1977;SDS011;989;53.016;8.346;2022-09-09T16:09:27;7.60;;;3.20;;
1977;SDS011;989;53.016;8.346;2022-09-09T16:11:57;6.80;;;3.37;;
1977;SDS011;989;53.016;8.346;2022-09-09T16:14:25;4.40;;;3.10;;
1977;SDS011;989;53.016;8.346;2022-09-09T16:16:52;5.50;;;3.20;;
1977;SDS011;989;53.016;8.346;2022-09-09T16:19:18;7.60;;;3.90;;
1977;SDS011;989;53.016;8.346;2022-09-09T16:21:48;13.67;;;3.60;;
1977;SDS011;989;53.016;8.346;2022-09-09T16:24:15;3.87;;;3.37;;
1977;SDS011;989;53.016;8.346;2022-09-09T16:26:44;9.33;;;3.27;;
1977;SDS011;989;53.016;8.346;2022-09-09T16:29:15;7.57;;;3.00;;
1977;SDS011;989;53.016;8.346;2022-09-09T16:31:43;6.53;;;4.23;;
1977;SDS011;989;53.016;8.346;2022-09-09T16:34:10;8.73;;;3.90;;
1977;SDS011;989;53.016;8.346;2022-09-09T16:36:37;5.13;;;4.13;;
1977;SDS011;989;53.016;8.346;2022-09-09T16:39:05;3.97;;;3.50;;
1977;SDS011;989;53.016;8.346;2022-09-09T16:41:34;6.00;;;4.83;;
1977;SDS011;989;53.016;8.346;2022-09-09T16:44:03;9.53;;;4.80;;
1977;SDS011;989;53.016;8.346;2022-09-09T16:46:32;12.00;;;4.80;;
1977;SDS011;989;53.016;8.346;2022-09-09T16:49:01;6.87;;;4.23;;
1977;SDS011;989;53.016;8.346;2022-09-09T16:51:36;5.90;;;3.20;;
1977;SDS011;989;53.016;8.346;2022-09-09T16:54:06;26.67;;;3.97;;
1977;SDS011;989;53.016;8.346;2022-09-09T16:56:34;20.27;;;4.40;;
1977;SDS011;989;53.016;8.346;2022-09-09T16:59:04;11.17;;;3.03;;
1977;SDS011;989;53.016;8.346;2022-09-09T17:01:33;5.47;;;3.30;;
1977;SDS011;989;53.016;8.346;2022-09-09T17:04:03;7.63;;;3.57;;
1977;SDS011;989;53.016;8.346;2022-09-09T17:06:32;7.73;;;2.87;;
1977;SDS011;989;53.016;8.346;2022-09-09T17:09:00;5.93;;;2.80;;
1977;SDS011;989;53.016;8.346;2022-09-09T17:11:29;7.33;;;2.70;;
1977;SDS011;989;53.016;8.346;2022-09-09T17:13:56;5.27;;;3.10;;
1977;SDS011;989;53.016;8.346;2022-09-09T17:16:24;4.43;;;2.50;;
1977;SDS011;989;53.016;8.346;2022-09-09T17:18:52;3.80;;;3.00;;
1977;SDS011;989;53.016;8.346;2022-09-09T17:21:21;5.00;;;3.13;;
1977;SDS011;989;53.016;8.346;2022-09-09T17:23:50;15.43;;;3.23;;
1977;SDS011;989;53.016;8.346;2022-09-09T17:26:18;5.30;;;3.47;;
1977;SDS011;989;53.016;8.346;2022-09-09T17:28:46;9.10;;;2.93;;
1977;SDS011;989;53.016;8.346;2022-09-09T17:31:13;5.30;;;3.37;;
1977;SDS011;989;53.016;8.346;2022-09-09T17:33:43;5.50;;;3.57;;
1977;SDS011;989;53.016;8.346;2022-09-09T17:36:12;9.50;;;3.40;;
1977;SDS011;989;53.016;8.346;2022-09-09T17:38:47;6.23;;;3.43;;
1977;SDS011;989;53.016;8.346;2022-09-09T17:41:26;6.50;;;3.63;;
1977;SDS011;989;53.016;8.346;2022-09-09T17:44:01;3.83;;;3.10;;
1977;SDS011;989;53.016;8.346;2022-09-09T17:46:35;10.53;;;3.87;;
1977;SDS011;989;53.016;8.346;2022-09-09T17:49:06;9.17;;;3.40;;
1977;SDS011;989;53.016;8.346;2022-09-09T17:51:41;4.37;;;3.37;;
1977;SDS011;989;53.016;8.346;2022-09-09T17:54:09;4.00;;;3.40;;